Time;durP1;ratioP1;P1;durP2;ratioP2;P2;SDS_P1;SDS_P2;PMS_P1;PMS_P2;Temp;Humidity;BMP_temperature;BMP_pressure;BME280_temperature;BME280_humidity;BME280_pressure;Samples;Min_cycle;Max_cycle;Signal;HPM_P1;HPM_P2
2021/01/03 00:01:54;;;;;;;57.60;25.17;;;4.30;90.60;;;;;;6257769;22;20008;-86
2021/01/03 00:04:19;;;;;;;58.43;25.67;;;4.30;90.50;;;;;;6258145;22;20035;-86
2021/01/03 00:06:49;;;;;;;56.47;24.10;;;4.30;90.60;;;;;;6257577;22;20000;-85
2021/01/03 00:09:16;;;;;;;55.17;24.17;;;4.30;90.90;;;;;;6257534;22;20004;-86
2021/01/03 00:11:41;;;;;;;56.70;24.80;;;4.30;90.60;;;;;;6257884;22;20000;-86
2021/01/03 00:14:07;;;;;;;58.10;25.10;;;4.30;90.60;;;;;;6257789;22;20063;-88
2021/01/03 00:16:36;;;;;;;60.80;26.00;;;4.30;90.80;;;;;;6284877;22;20389;-85
2021/01/03 00:19:04;;;;;;;61.00;23.80;;;4.30;90.60;;;;;;6257038;22;20004;-85
2021/01/03 00:21:29;;;;;;;57.33;24.90;;;4.40;90.60;;;;;;6257972;22;20012;-87
2021/01/03 00:23:55;;;;;;;56.47;24.27;;;4.40;90.50;;;;;;6258151;22;20003;-87
2021/01/03 00:26:20;;;;;;;59.73;24.40;;;4.40;90.50;;;;;;6258285;22;20003;-86
2021/01/03 00:28:46;;;;;;;60.37;24.80;;;4.40;90.50;;;;;;6257824;22;20007;-86
2021/01/03 00:31:12;;;;;;;60.37;26.40;;;4.40;90.50;;;;;;6257794;22;19996;-85
2021/01/03 00:33:37;;;;;;;60.87;26.20;;;4.30;90.50;;;;;;6258340;22;20000;-85
2021/01/03 00:36:03;;;;;;;62.73;26.37;;;4.30;90.70;;;;;;6258786;22;20057;-86
2021/01/03 00:38:29;;;;;;;52.80;24.13;;;4.40;90.50;;;;;;6285891;22;20059;-87
2021/01/03 00:40:55;;;;;;;56.03;24.60;;;4.40;90.50;;;;;;6285189;22;20065;-85
2021/01/03 00:43:20;;;;;;;58.77;25.90;;;4.30;90.60;;;;;;6258411;22;20007;-86
2021/01/03 00:45:46;;;;;;;56.40;24.03;;;4.40;90.60;;;;;;6258285;22;20007;-87
2021/01/03 00:48:12;;;;;;;57.47;25.60;;;4.40;90.60;;;;;;6258159;22;20000;-87
2021/01/03 00:50:38;;;;;;;60.50;26.47;;;4.30;90.60;;;;;;6257775;22;20346;-86
2021/01/03 00:53:05;;;;;;;60.80;26.13;;;4.20;90.80;;;;;;6259519;22;20006;-87
2021/01/03 00:55:31;;;;;;;59.93;26.17;;;4.20;91.00;;;;;;6286324;22;20042;-86
2021/01/03 00:57:56;;;;;;;62.13;27.27;;;4.20;90.90;;;;;;6259149;22;20004;-86
2021/01/03 01:00:33;;;;;;;59.07;26.53;;;4.20;90.90;;;;;;6258326;22;20046;-88
2021/01/03 01:03:00;;;;;;;57.80;25.53;;;4.30;90.90;;;;;;6286608;22;20007;-87
2021/01/03 01:05:26;;;;;;;61.03;27.17;;;4.30;91.00;;;;;;6258949;22;20293;-86
2021/01/03 01:07:52;;;;;;;63.57;28.17;;;4.30;90.90;;;;;;6286054;22;20289;-86
2021/01/03 01:10:23;;;;;;;59.73;26.00;;;4.30;90.70;;;;;;6258969;22;20385;-88
2021/01/03 01:12:50;;;;;;;64.80;27.50;;;4.30;90.80;;;;;;6286171;22;20000;-87
2021/01/03 01:15:19;;;;;;;62.57;27.17;;;4.30;90.80;;;;;;6259390;22;20008;-86
2021/01/03 01:17:49;;;;;;;57.47;26.70;;;4.30;90.80;;;;;;6260402;22;20027;-88
2021/01/03 01:20:17;;;;;;;57.00;25.87;;;4.40;90.70;;;;;;6259379;22;20061;-88
2021/01/03 01:22:43;;;;;;;60.67;26.13;;;4.30;90.70;;;;;;6267404;22;20071;-85
2021/01/03 01:25:11;;;;;;;58.63;27.30;;;4.40;90.80;;;;;;6267962;22;20004;-84
2021/01/03 01:27:36;;;;;;;59.77;28.23;;;4.40;90.70;;;;;;6267074;22;20008;-86
2021/01/03 01:30:05;;;;;;;60.17;27.30;;;4.40;90.60;;;;;;6268105;22;20007;-84
2021/01/03 01:32:31;;;;;;;59.00;27.38;;;4.30;90.50;;;;;;6267522;22;19999;-85
2021/01/03 01:34:57;;;;;;;58.37;26.93;;;4.40;90.60;;;;;;6268123;22;20039;-85
2021/01/03 01:37:23;;;;;;;59.07;27.13;;;4.40;90.50;;;;;;6256344;22;20003;-85
2021/01/03 01:39:49;;;;;;;56.73;26.33;;;4.40;90.60;;;;;;6253269;22;20011;-85
2021/01/03 01:42:16;;;;;;;60.77;27.83;;;4.40;90.50;;;;;;6254848;22;20155;-86
2021/01/03 01:44:42;;;;;;;59.37;26.73;;;4.40;90.50;;;;;;6254480;22;20030;-85
2021/01/03 01:47:33;;;;;;;59.30;27.30;;;4.40;90.40;;;;;;6254097;22;20008;-85
2021/01/03 01:50:03;;;;;;;57.87;27.23;;;4.40;90.40;;;;;;6254891;22;19999;-86
2021/01/03 01:52:33;;;;;;;56.77;26.50;;;4.40;90.40;;;;;;6285982;22;19996;-87
2021/01/03 01:55:04;;;;;;;60.50;28.33;;;4.40;90.40;;;;;;6258533;22;20060;-86
2021/01/03 01:57:49;;;;;;;55.33;26.53;;;4.40;90.40;;;;;;6256235;22;19999;-85
2021/01/03 02:00:26;;;;;;;58.57;26.10;;;4.40;90.40;;;;;;6257316;22;20003;-85
2021/01/03 02:03:03;;;;;;;57.80;26.33;;;4.40;90.30;;;;;;6285832;22;20006;-85
2021/01/03 02:05:34;;;;;;;61.97;28.80;;;4.40;90.40;;;;;;6285236;22;20008;-87
2021/01/03 02:08:25;;;;;;;59.03;27.47;;;4.40;90.20;;;;;;6257671;22;20000;-86
2021/01/03 02:10:51;;;;;;;57.37;26.57;;;4.40;90.30;;;;;;6257965;22;20004;-85
2021/01/03 02:13:25;;;;;;;57.77;28.33;;;4.40;90.30;;;;;;6257225;22;20460;-85
2021/01/03 02:15:56;;;;;;;57.77;26.17;;;4.40;90.30;;;;;;6257318;22;20000;-85
2021/01/03 02:18:22;;;;;;;58.63;26.53;;;4.40;90.20;;;;;;6257411;22;20003;-85
2021/01/03 02:20:59;;;;;;;60.47;27.90;;;4.40;90.10;;;;;;6256204;22;20007;-86
2021/01/03 02:24:04;;;;;;;56.23;26.37;;;4.40;90.00;;;;;;6256197;22;20000;-85
2021/01/03 02:26:37;;;;;;;60.37;28.43;;;4.40;90.10;;;;;;6199357;22;20003;-86
2021/01/03 02:29:06;;;;;;;61.47;27.77;;;4.30;90.30;;;;;;6256066;22;20465;-85
2021/01/03 02:31:39;;;;;;;61.28;27.65;;;4.20;90.10;;;;;;6256714;22;20074;-87
2021/01/03 02:34:07;;;;;;;57.17;27.00;;;4.20;90.30;;;;;;6256995;22;20000;-86
2021/01/03 02:36:42;;;;;;;63.13;28.10;;;4.20;90.40;;;;;;6256766;22;20438;-85
2021/01/03 02:39:33;;;;;;;60.57;27.87;;;4.20;90.50;;;;;;6255750;22;20381;-86
2021/01/03 02:42:09;;;;;;;60.13;27.73;;;4.30;90.20;;;;;;6282577;22;20078;-86
2021/01/03 02:44:35;;;;;;;57.67;26.80;;;4.30;90.40;;;;;;6255044;22;20090;-85
2021/01/03 02:47:01;;;;;;;59.77;27.87;;;4.30;90.20;;;;;;6283556;22;20000;-85
2021/01/03 02:49:26;;;;;;;58.27;28.27;;;4.30;90.20;;;;;;6255247;22;20000;-86
2021/01/03 02:51:52;;;;;;;64.10;30.07;;;4.30;90.10;;;;;;6256044;22;20061;-88
2021/01/03 02:54:18;;;;;;;60.27;26.57;;;4.30;90.30;;;;;;6255866;22;20011;-84
2021/01/03 02:56:44;;;;;;;59.43;28.67;;;4.30;90.30;;;;;;6282438;22;20004;-85
2021/01/03 02:59:09;;;;;;;60.57;28.47;;;4.30;90.20;;;;;;6282499;22;20000;-85
2021/01/03 03:01:35;;;;;;;58.80;27.97;;;4.30;90.10;;;;;;6283574;22;20062;-85
2021/01/03 03:04:01;;;;;;;60.33;28.23;;;4.30;90.20;;;;;;6256118;22;20334;-86
2021/01/03 03:06:26;;;;;;;58.53;27.73;;;4.40;90.10;;;;;;6282625;22;20010;-86
2021/01/03 03:08:52;;;;;;;54.10;25.97;;;4.30;90.10;;;;;;6255642;22;20004;-85
2021/01/03 03:11:17;;;;;;;56.07;27.10;;;4.30;90.10;;;;;;6254910;22;20010;-86
2021/01/03 03:13:43;;;;;;;57.27;27.00;;;4.30;90.20;;;;;;6255841;22;20007;-85
2021/01/03 03:16:09;;;;;;;55.10;26.37;;;4.40;89.80;;;;;;6282786;22;20035;-87
2021/01/03 03:18:34;;;;;;;52.77;25.90;;;4.40;89.60;;;;;;6254866;22;20043;-85
2021/01/03 03:21:00;;;;;;;51.73;25.83;;;4.40;89.10;;;;;;6254093;22;20082;-84
2021/01/03 03:23:26;;;;;;;51.53;25.63;;;4.40;88.90;;;;;;6254974;22;20031;-85
2021/01/03 03:25:51;;;;;;;52.37;26.57;;;4.40;88.90;;;;;;6254991;22;20086;-85
2021/01/03 03:28:17;;;;;;;54.30;26.50;;;4.40;88.50;;;;;;6254921;22;20004;-86
2021/01/03 03:30:43;;;;;;;50.13;24.70;;;4.40;88.70;;;;;;6282526;22;19999;-87
2021/01/03 03:33:10;;;;;;;51.63;25.63;;;4.30;88.20;;;;;;6283059;22;20000;-85
2021/01/03 03:35:37;;;;;;;50.80;24.70;;;4.30;88.20;;;;;;6283823;22;19995;-85
2021/01/03 03:38:04;;;;;;;52.60;25.27;;;4.40;87.50;;;;;;6255547;22;20065;-86
2021/01/03 03:40:30;;;;;;;48.27;23.40;;;4.30;88.10;;;;;;6281902;22;20465;-84
2021/01/03 03:42:56;;;;;;;51.77;24.03;;;4.30;87.90;;;;;;6282366;22;19999;-86
2021/01/03 03:45:22;;;;;;;48.07;24.40;;;4.30;88.00;;;;;;6255673;22;20378;-86
2021/01/03 03:47:47;;;;;;;47.63;23.50;;;4.30;87.70;;;;;;6282795;22;20007;-87
2021/01/03 03:50:21;;;;;;;46.90;23.13;;;4.20;87.10;;;;;;6281731;22;19996;-84
2021/01/03 03:52:47;;;;;;;47.57;23.90;;;4.20;87.30;;;;;;6254487;22;20003;-86
2021/01/03 03:55:13;;;;;;;45.50;22.50;;;4.20;87.10;;;;;;6253091;22;20069;-85
2021/01/03 03:57:39;;;;;;;45.83;21.93;;;4.30;86.80;;;;;;6281938;22;20006;-85
2021/01/03 04:00:23;;;;;;;42.33;21.63;;;4.20;87.00;;;;;;6253846;22;20008;-86
2021/01/03 04:02:48;;;;;;;47.10;22.30;;;4.20;86.60;;;;;;6281027;22;20125;-84
2021/01/03 04:05:18;;;;;;;44.47;21.80;;;4.30;86.20;;;;;;6253556;22;20388;-86
2021/01/03 04:07:44;;;;;;;45.93;22.87;;;4.30;86.50;;;;;;6253483;22;20018;-86
2021/01/03 04:10:10;;;;;;;45.77;22.27;;;4.30;86.30;;;;;;6253845;22;20000;-85
2021/01/03 04:12:36;;;;;;;42.87;22.23;;;4.30;85.60;;;;;;6253715;22;20004;-87
2021/01/03 04:15:05;;;;;;;47.00;22.97;;;4.30;86.00;;;;;;6253712;22;20007;-85
2021/01/03 04:17:31;;;;;;;44.17;21.30;;;4.30;85.50;;;;;;6253325;22;20004;-85
2021/01/03 04:19:57;;;;;;;44.43;21.47;;;4.30;85.60;;;;;;6253827;22;20007;-84
2021/01/03 04:22:22;;;;;;;44.10;20.97;;;4.30;86.00;;;;;;6252975;22;20011;-86
2021/01/03 04:24:48;;;;;;;42.67;20.63;;;4.30;85.60;;;;;;6253757;22;20008;-85
2021/01/03 04:27:13;;;;;;;44.77;22.53;;;4.30;85.60;;;;;;6253234;22;20008;-85
2021/01/03 04:29:40;;;;;;;42.93;20.10;;;4.30;85.10;;;;;;6252838;22;20434;-85
2021/01/03 04:32:08;;;;;;;40.13;19.23;;;4.20;84.80;;;;;;6253529;22;20000;-85
2021/01/03 04:34:37;;;;;;;42.27;20.73;;;4.20;84.70;;;;;;6253062;22;20003;-84
2021/01/03 04:37:03;;;;;;;41.03;20.67;;;4.20;85.00;;;;;;6253290;22;20581;-85
2021/01/03 04:39:29;;;;;;;42.17;20.23;;;4.20;84.80;;;;;;6252437;22;20003;-84
2021/01/03 04:42:07;;;;;;;42.03;20.07;;;4.20;85.60;;;;;;6280357;22;20000;-86
2021/01/03 04:44:40;;;;;;;42.07;19.87;;;4.20;85.70;;;;;;6252876;22;20023;-86
2021/01/03 04:47:22;;;;;;;44.30;21.23;;;4.20;85.10;;;;;;6280554;22;20037;-85
2021/01/03 04:50:11;;;;;;;41.60;20.70;;;4.20;85.50;;;;;;6253195;22;19999;-85
2021/01/03 04:52:59;;;;;;;41.75;20.00;;;4.20;85.50;;;;;;6176597;22;20030;-86
2021/01/03 04:55:26;;;;;;;45.20;21.23;;;4.20;85.80;;;;;;6253240;22;20026;-84
2021/01/03 04:58:07;;;;;;;47.97;22.50;;;4.30;86.00;;;;;;6252855;22;20086;-85
2021/01/03 05:00:41;;;;;;;46.43;23.00;;;4.20;86.60;;;;;;6252779;22;20008;-87
2021/01/03 05:03:10;;;;;;;47.73;22.53;;;4.20;86.80;;;;;;6255980;22;20039;-87
2021/01/03 05:05:45;;;;;;;47.50;22.30;;;4.20;86.50;;;;;;6255904;22;20007;-87
2021/01/03 05:08:22;;;;;;;46.63;23.53;;;4.30;86.70;;;;;;6255704;22;20035;-85
2021/01/03 05:10:48;;;;;;;47.20;23.60;;;4.20;87.00;;;;;;6256546;22;19996;-85
2021/01/03 05:13:33;;;;;;;51.70;24.30;;;4.20;87.10;;;;;;6257099;22;20060;-85
2021/01/03 05:15:58;;;;;;;50.23;23.57;;;4.20;87.10;;;;;;6257538;22;20338;-85
2021/01/03 05:18:24;;;;;;;44.93;23.00;;;4.20;87.60;;;;;;6257070;22;20000;-85
2021/01/03 05:20:57;;;;;;;48.50;23.13;;;4.20;87.60;;;;;;6254022;22;20082;-78
2021/01/03 05:23:25;;;;;;;49.27;23.13;;;4.30;88.20;;;;;;6246973;23;20058;-80
2021/01/03 05:25:53;;;;;;;48.80;22.50;;;4.20;87.60;;;;;;6246966;23;20007;-81
2021/01/03 05:28:28;;;;;;;51.20;24.43;;;4.20;87.70;;;;;;6246868;23;20042;-81
2021/01/03 05:31:09;;;;;;;48.73;22.77;;;4.20;87.70;;;;;;6243934;23;20451;-81
2021/01/03 05:33:35;;;;;;;48.80;23.10;;;4.20;87.50;;;;;;6217084;23;20004;-81
2021/01/03 05:36:00;;;;;;;47.13;23.13;;;4.20;87.70;;;;;;6216390;23;20296;-80
2021/01/03 05:38:52;;;;;;;46.80;23.47;;;4.20;87.60;;;;;;6214860;23;20027;-80
2021/01/03 05:41:30;;;;;;;46.50;22.00;;;4.20;87.90;;;;;;6211488;23;20032;-81
2021/01/03 05:44:09;;;;;;;48.97;23.07;;;4.30;87.60;;;;;;6189884;23;20079;-80
2021/01/03 05:46:40;;;;;;;46.30;22.30;;;4.20;87.80;;;;;;6216575;23;20492;-81
2021/01/03 05:49:22;;;;;;;49.20;23.57;;;4.20;87.70;;;;;;6215182;23;20336;-81
2021/01/03 05:51:57;;;;;;;48.83;23.27;;;4.10;87.90;;;;;;6216000;23;20076;-80
2021/01/03 05:54:31;;;;;;;43.57;21.70;;;4.10;87.60;;;;;;6214288;23;20007;-80
2021/01/03 05:57:08;;;;;;;46.30;22.47;;;4.20;87.70;;;;;;6216715;23;20083;-81
2021/01/03 05:59:38;;;;;;;42.83;21.07;;;4.10;87.50;;;;;;6216247;23;20039;-81
2021/01/03 06:02:21;;;;;;;41.80;20.27;;;4.20;87.40;;;;;;6216736;23;20074;-81
2021/01/03 06:05:00;;;;;;;43.67;21.80;;;4.20;87.10;;;;;;6217019;23;20326;-81
2021/01/03 06:07:28;;;;;;;42.80;20.60;;;4.20;86.80;;;;;;6217273;23;20008;-80
2021/01/03 06:09:53;;;;;;;38.20;19.67;;;4.10;86.40;;;;;;6215983;23;20027;-81
2021/01/03 06:12:29;;;;;;;45.13;20.73;;;4.20;86.20;;;;;;6216681;23;19997;-80
2021/01/03 06:14:58;;;;;;;44.20;20.50;;;4.20;86.30;;;;;;6217045;23;20008;-81
2021/01/03 06:17:32;;;;;;;40.20;20.08;;;4.20;86.20;;;;;;6216842;23;20011;-81
2021/01/03 06:20:06;;;;;;;42.17;20.63;;;4.20;85.70;;;;;;6216180;23;20431;-80
2021/01/03 06:22:44;;;;;;;43.40;20.83;;;4.30;85.50;;;;;;6214902;23;20012;-81
2021/01/03 06:25:41;;;;;;;34.67;17.83;;;4.30;85.60;;;;;;6217432;23;20001;-81
2021/01/03 06:28:13;;;;;;;41.93;19.80;;;4.20;85.50;;;;;;6216930;23;20127;-80
2021/01/03 06:30:45;;;;;;;35.63;17.70;;;4.20;85.20;;;;;;6216230;23;20016;-82
2021/01/03 06:34:00;;;;;;;34.43;16.87;;;4.20;84.20;;;;;;6216882;23;20027;-81
2021/01/03 06:36:33;;;;;;;33.57;17.30;;;4.30;84.30;;;;;;6158936;23;20338;-81
2021/01/03 06:39:10;;;;;;;29.00;15.20;;;4.30;83.60;;;;;;6216115;23;20402;-81
2021/01/03 06:41:56;;;;;;;26.57;13.90;;;4.30;82.20;;;;;;6216655;23;20431;-81
2021/01/03 06:44:25;;;;;;;30.10;13.83;;;4.30;81.10;;;;;;6217380;23;20054;-81
2021/01/03 06:47:31;;;;;;;22.93;11.73;;;4.30;80.30;;;;;;6219161;23;20007;-81
2021/01/03 06:50:15;;;;;;;21.53;11.00;;;4.30;79.10;;;;;;6173079;23;20232;-82
2021/01/03 06:53:01;;;;;;;23.70;11.37;;;4.30;78.60;;;;;;6218900;23;20003;-81
2021/01/03 06:55:35;;;;;;;20.53;10.50;;;4.30;78.20;;;;;;6219437;23;20000;-81
2021/01/03 06:58:25;;;;;;;19.50;10.43;;;4.30;76.80;;;;;;6217502;23;20004;-81
2021/01/03 07:00:58;;;;;;;24.20;10.97;;;4.40;77.30;;;;;;6217710;23;20008;-81
2021/01/03 07:03:27;;;;;;;22.50;11.00;;;4.30;77.00;;;;;;6218015;23;20039;-81
2021/01/03 07:05:59;;;;;;;;;;;4.40;77.10;;;;;;6218293;23;20008;-81
2021/01/03 07:08:29;;;;;;;18.33;9.73;;;4.40;77.30;;;;;;6190501;23;19899;-80
2021/01/03 07:10:54;;;;;;;21.17;10.50;;;4.30;76.60;;;;;;6190176;23;20004;-80
2021/01/03 07:13:29;;;;;;;19.40;9.70;;;4.30;77.30;;;;;;6217322;23;20071;-81
2021/01/03 07:15:56;;;;;;;20.53;10.00;;;4.40;76.90;;;;;;6217467;23;20000;-81
2021/01/03 07:18:45;;;;;;;19.63;9.87;;;4.30;77.10;;;;;;6216430;23;20058;-82
2021/01/03 07:21:10;;;;;;;18.70;9.30;;;4.40;76.80;;;;;;6220314;23;20009;-82
2021/01/03 07:23:43;;;;;;;19.30;10.03;;;4.30;76.80;;;;;;6219312;23;20079;-82
2021/01/03 07:26:32;;;;;;;20.30;10.07;;;4.40;76.50;;;;;;6219291;23;20005;-82
2021/01/03 07:29:06;;;;;;;18.50;9.48;;;4.40;76.50;;;;;;6218691;23;20007;-81
2021/01/03 07:31:34;;;;;;;18.67;10.07;;;4.40;76.80;;;;;;6192367;23;20000;-82
2021/01/03 07:34:05;;;;;;;19.63;9.73;;;4.40;76.40;;;;;;6218642;23;19997;-81
2021/01/03 07:36:53;;;;;;;15.87;8.77;;;4.40;76.00;;;;;;6192871;23;20051;-82
2021/01/03 07:39:32;;;;;;;18.73;9.73;;;4.40;75.90;;;;;;6218850;23;20345;-82
2021/01/03 07:42:22;;;;;;;17.10;8.68;;;4.30;76.00;;;;;;6218781;23;20083;-82
2021/01/03 07:44:49;;;;;;;16.83;9.10;;;4.40;76.40;;;;;;6219195;23;20005;-81
2021/01/03 07:47:48;;;;;;;17.40;9.00;;;4.30;75.70;;;;;;6218729;23;20001;-81
2021/01/03 07:50:20;;;;;;;17.48;9.63;;;4.30;75.60;;;;;;6128268;23;20000;-82
2021/01/03 07:53:08;;;;;;;20.67;10.90;;;4.30;75.90;;;;;;6218904;23;20047;-82
2021/01/03 07:55:34;;;;;;;15.93;8.77;;;4.40;76.20;;;;;;6219158;23;20008;-82
2021/01/03 07:58:10;;;;;;;17.63;9.00;;;4.40;76.10;;;;;;6218371;23;20001;-82
2021/01/03 08:00:40;;;;;;;16.87;8.87;;;4.40;75.60;;;;;;6218854;23;20016;-82
2021/01/03 08:03:09;;;;;;;15.80;8.33;;;4.40;76.00;;;;;;6219799;23;20004;-82
2021/01/03 08:05:36;;;;;;;15.75;8.35;;;4.40;75.70;;;;;;6220732;23;20075;-82
2021/01/03 08:08:24;;;;;;;16.90;9.03;;;4.30;75.00;;;;;;6220498;23;20001;-82
2021/01/03 08:10:52;;;;;;;14.30;8.10;;;4.40;75.80;;;;;;6219505;23;20005;-82
2021/01/03 08:13:26;;;;;;;15.27;8.10;;;4.30;74.50;;;;;;6193902;23;20320;-82
2021/01/03 08:15:57;;;;;;;15.53;8.43;;;4.30;75.10;;;;;;6221233;23;20467;-82
2021/01/03 08:18:23;;;;;;;14.23;7.70;;;4.40;75.10;;;;;;6220707;23;20004;-82
2021/01/03 08:20:49;;;;;;;14.93;7.27;;;4.30;74.70;;;;;;6220082;23;20047;-82
2021/01/03 08:23:30;;;;;;;13.40;7.57;;;4.40;75.00;;;;;;6221188;23;20004;-82
2021/01/03 08:26:26;;;;;;;14.20;7.73;;;4.30;74.30;;;;;;6192593;23;20005;-82
2021/01/03 08:28:52;;;;;;;13.97;7.27;;;4.40;74.30;;;;;;6113314;23;20002;-83
2021/01/03 08:31:18;;;;;;;14.37;7.70;;;4.40;74.00;;;;;;6219771;23;20004;-82
2021/01/03 08:33:49;;;;;;;13.97;6.50;;;4.40;74.60;;;;;;6221093;23;20035;-82
2021/01/03 08:36:20;;;;;;;13.27;6.93;;;4.40;73.60;;;;;;6221136;23;20024;-82
2021/01/03 08:38:46;;;;;;;11.90;6.67;;;4.40;73.50;;;;;;6221012;23;20000;-82
2021/01/03 08:41:20;;;;;;;11.07;6.27;;;4.40;73.50;;;;;;6220700;23;20324;-82
2021/01/03 08:43:46;;;;;;;10.10;6.20;;;4.30;73.40;;;;;;6221320;23;20475;-82
2021/01/03 08:46:18;;;;;;;11.60;6.47;;;4.40;73.40;;;;;;6204129;23;20012;-82
2021/01/03 08:48:46;;;;;;;11.30;6.87;;;4.40;73.30;;;;;;6233619;23;20348;-82
2021/01/03 08:51:14;;;;;;;10.93;6.90;;;4.40;73.50;;;;;;6235423;23;19976;-82
2021/01/03 08:53:40;;;;;;;11.27;6.23;;;4.40;72.80;;;;;;6220019;23;20028;-82
2021/01/03 08:56:14;;;;;;;11.27;5.57;;;4.30;72.30;;;;;;6219653;23;19996;-82
2021/01/03 08:58:41;;;;;;;9.57;5.60;;;4.40;72.50;;;;;;6219266;23;20047;-82
2021/01/03 09:01:28;;;;;;;8.53;5.20;;;4.40;72.90;;;;;;6218474;23;20008;-81
2021/01/03 09:04:06;;;;;;;10.70;6.37;;;4.30;72.40;;;;;;6219108;23;20065;-82
2021/01/03 09:06:33;;;;;;;9.33;5.60;;;4.30;72.30;;;;;;6191473;23;20004;-82
2021/01/03 09:09:11;;;;;;;9.00;5.20;;;4.40;73.10;;;;;;6216732;23;20007;-82
2021/01/03 09:11:48;;;;;;;10.30;5.70;;;4.30;72.50;;;;;;6190732;23;20050;-82
2021/01/03 09:14:42;;;;;;;9.77;5.30;;;4.30;73.00;;;;;;6217528;23;19997;-82
2021/01/03 09:17:19;;;;;;;14.20;6.90;;;4.30;72.50;;;;;;6201884;23;20008;-81
2021/01/03 09:19:57;;;;;;;10.40;5.47;;;4.30;73.40;;;;;;6216939;23;20378;-82
2021/01/03 09:22:36;;;;;;;11.73;5.60;;;4.30;73.40;;;;;;6190740;23;20167;-82
2021/01/03 09:25:14;;;;;;;8.55;4.78;;;4.40;73.30;;;;;;6217603;23;20013;-82
2021/01/03 09:27:41;;;;;;;9.37;4.90;;;4.30;73.30;;;;;;6217358;23;20001;-82
2021/01/03 09:30:19;;;;;;;8.10;4.13;;;4.40;73.30;;;;;;6216639;23;20005;-81
2021/01/03 09:32:48;;;;;;;9.33;4.93;;;4.40;72.80;;;;;;6189785;23;20079;-82
2021/01/03 09:35:35;;;;;;;8.30;4.63;;;4.40;73.30;;;;;;6217229;23;20075;-82
2021/01/03 09:38:28;;;;;;;7.00;3.80;;;4.40;72.90;;;;;;6217579;23;20054;-82
2021/01/03 09:41:31;;;;;;;8.67;4.40;;;4.40;72.60;;;;;;6190042;23;20012;-81
2021/01/03 09:44:22;;;;;;;8.73;4.20;;;4.40;72.60;;;;;;6217835;23;20100;-81
2021/01/03 09:46:54;;;;;;;8.40;4.67;;;4.40;73.00;;;;;;6217238;23;20071;-82
2021/01/03 09:49:29;;;;;;;8.70;4.37;;;4.40;73.00;;;;;;6217207;23;20055;-82
2021/01/03 09:52:21;;;;;;;7.47;4.17;;;4.30;72.60;;;;;;6217718;23;20331;-81
2021/01/03 09:54:59;;;;;;;8.30;4.40;;;4.40;73.00;;;;;;6211521;23;20008;-81
2021/01/03 09:57:53;;;;;;;8.37;4.43;;;4.40;72.80;;;;;;6190621;23;20004;-82
2021/01/03 10:00:24;;;;;;;8.00;4.50;;;4.30;72.40;;;;;;6202924;23;20455;-82
2021/01/03 10:02:50;;;;;;;9.80;5.10;;;4.40;73.00;;;;;;6217798;23;20364;-81
2021/01/03 10:05:27;;;;;;;8.97;4.43;;;4.30;73.00;;;;;;6190359;23;20011;-82
2021/01/03 10:08:06;;;;;;;8.83;4.13;;;4.30;73.40;;;;;;6218131;23;20000;-82
2021/01/03 10:10:48;;;;;;;8.77;4.30;;;4.40;73.20;;;;;;6216631;23;20004;-81
2021/01/03 10:13:15;;;;;;;11.10;4.37;;;4.40;73.40;;;;;;6217358;23;20111;-81
2021/01/03 10:15:42;;;;;;;6.97;4.20;;;4.40;73.30;;;;;;6217364;23;20068;-82
2021/01/03 10:18:11;;;;;;;8.57;4.50;;;4.40;73.40;;;;;;6191144;23;20008;-81
2021/01/03 10:20:50;;;;;;;9.52;4.07;;;4.40;72.80;;;;;;6191572;23;20471;-82
2021/01/03 10:23:56;;;;;;;8.73;4.37;;;4.40;72.50;;;;;;6193738;23;20055;-81
2021/01/03 10:26:31;;;;;;;8.50;4.23;;;4.40;72.60;;;;;;6159845;23;20000;-82
2021/01/03 10:28:57;;;;;;;9.30;4.07;;;4.50;73.10;;;;;;6219139;23;20055;-82
2021/01/03 10:31:37;;;;;;;7.67;4.10;;;4.50;72.60;;;;;;6192581;23;20012;-82
2021/01/03 10:34:03;;;;;;;7.87;4.70;;;4.40;72.70;;;;;;6220254;23;20004;-81
2021/01/03 10:36:28;;;;;;;7.47;3.80;;;4.40;72.80;;;;;;6218943;23;20000;-81
2021/01/03 10:38:54;;;;;;;6.67;3.40;;;4.40;73.00;;;;;;6190951;23;20005;-82
2021/01/03 10:41:20;;;;;;;7.60;4.33;;;4.40;72.80;;;;;;6218181;23;20004;-81
2021/01/03 10:43:47;;;;;;;7.73;4.10;;;4.40;72.90;;;;;;6219512;23;20000;-82
2021/01/03 10:46:16;;;;;;;9.37;5.00;;;4.40;73.10;;;;;;6218403;23;20008;-81
2021/01/03 10:48:41;;;;;;;6.80;4.10;;;4.40;73.10;;;;;;6217773;23;20436;-82
2021/01/03 10:51:07;;;;;;;10.53;5.60;;;4.40;73.20;;;;;;6217010;23;20003;-82
2021/01/03 10:53:33;;;;;;;9.33;4.50;;;4.40;73.00;;;;;;6190718;23;20008;-82
2021/01/03 10:56:00;;;;;;;7.47;4.30;;;4.50;73.00;;;;;;6218406;23;20000;-82
2021/01/03 10:58:26;;;;;;;8.13;4.20;;;4.50;72.80;;;;;;6217753;23;20331;-82
2021/01/03 11:00:51;;;;;;;7.70;4.07;;;4.50;72.80;;;;;;6217345;23;20000;-82
2021/01/03 11:03:17;;;;;;;6.03;3.67;;;4.50;72.90;;;;;;6218105;23;20010;-82
2021/01/03 11:05:43;;;;;;;7.17;4.00;;;4.50;72.70;;;;;;6191195;23;20421;-81
2021/01/03 11:08:08;;;;;;;6.77;4.20;;;4.50;72.90;;;;;;6218223;23;20051;-82
2021/01/03 11:10:34;;;;;;;8.13;4.33;;;4.40;72.10;;;;;;6190632;23;20343;-82
2021/01/03 11:12:59;;;;;;;8.60;4.20;;;4.40;72.80;;;;;;6217772;23;20003;-81
2021/01/03 11:15:25;;;;;;;6.67;3.60;;;4.40;72.30;;;;;;6217613;23;20007;-82
2021/01/03 11:17:51;;;;;;;7.17;3.67;;;4.50;72.40;;;;;;6217834;23;20383;-82
2021/01/03 11:20:16;;;;;;;5.40;3.53;;;4.50;72.10;;;;;;6217984;23;20012;-82
2021/01/03 11:22:42;;;;;;;6.47;3.67;;;4.40;72.10;;;;;;6291032;22;20015;-86
2021/01/03 11:25:08;;;;;;;5.83;3.50;;;4.50;71.80;;;;;;6301593;22;20055;-85
2021/01/03 11:34:31;;;;;;;7.03;3.67;;;4.50;72.40;;;;;;6286169;22;20017;-85
2021/01/03 11:38:10;;;;;;;7.90;3.37;;;4.60;72.30;;;;;;6200969;22;20004;-85
2021/01/03 11:40:58;;;;;;;6.93;3.70;;;4.50;71.50;;;;;;6259007;22;20007;-85
2021/01/03 11:43:40;;;;;;;6.47;3.50;;;4.50;71.60;;;;;;6204856;22;20007;-85
2021/01/03 11:46:08;;;;;;;6.63;3.80;;;4.50;72.20;;;;;;6260109;22;20007;-85
2021/01/03 11:48:33;;;;;;;6.30;3.70;;;4.50;71.90;;;;;;6234000;22;20004;-85
2021/01/03 11:50:59;;;;;;;5.57;3.43;;;4.50;72.30;;;;;;6260799;22;20080;-85
2021/01/03 11:53:25;;;;;;;7.07;4.00;;;4.60;72.40;;;;;;6254928;22;20000;-85
2021/01/03 11:55:51;;;;;;;5.77;3.63;;;4.60;72.60;;;;;;6260349;22;20003;-85
2021/01/03 11:58:17;;;;;;;6.53;3.63;;;4.60;72.30;;;;;;6259607;22;20086;-85
2021/01/03 12:00:42;;;;;;;7.97;4.27;;;4.60;72.00;;;;;;6260211;22;20006;-86
2021/01/03 12:03:08;;;;;;;6.93;3.90;;;4.50;71.90;;;;;;6262566;22;20011;-85
2021/01/03 12:05:35;;;;;;;7.10;4.07;;;4.50;72.30;;;;;;6262167;22;20000;-86
2021/01/03 12:08:00;;;;;;;7.67;4.20;;;4.50;71.90;;;;;;6259477;22;20014;-85
2021/01/03 12:10:26;;;;;;;7.30;4.40;;;4.50;72.30;;;;;;6261427;22;20330;-85
2021/01/03 12:12:52;;;;;;;8.03;4.57;;;4.50;72.10;;;;;;6261941;22;20025;-85
2021/01/03 12:15:18;;;;;;;7.67;4.07;;;4.40;72.10;;;;;;6262018;22;20002;-85
2021/01/03 12:17:44;;;;;;;6.97;3.90;;;4.40;72.30;;;;;;6262077;22;20008;-85
2021/01/03 12:20:11;;;;;;;6.60;4.03;;;4.50;72.20;;;;;;6261423;22;20013;-84
2021/01/03 12:22:36;;;;;;;7.40;4.50;;;4.50;72.40;;;;;;6262048;22;20018;-85
2021/01/03 12:25:04;;;;;;;7.70;4.57;;;4.60;71.90;;;;;;6260504;22;20008;-86
2021/01/03 12:27:30;;;;;;;7.17;4.40;;;4.60;72.00;;;;;;6261705;22;20008;-86
2021/01/03 12:29:56;;;;;;;8.27;4.60;;;4.60;71.80;;;;;;6287044;22;20027;-87
2021/01/03 12:32:21;;;;;;;8.30;4.70;;;4.60;71.90;;;;;;6261772;22;20026;-85
2021/01/03 12:34:47;;;;;;;6.53;4.40;;;4.60;72.10;;;;;;6256742;22;20018;-85
2021/01/03 12:37:20;;;;;;;8.47;4.60;;;4.60;72.20;;;;;;6255254;22;20007;-85
2021/01/03 12:39:46;;;;;;;8.63;4.03;;;4.60;71.90;;;;;;6285239;22;20011;-85
2021/01/03 12:42:19;;;;;;;7.67;4.70;;;4.60;72.00;;;;;;6280945;22;20000;-86
2021/01/03 12:44:45;;;;;;;7.07;4.33;;;4.60;71.70;;;;;;6253522;22;20010;-85
2021/01/03 12:47:11;;;;;;;8.13;4.70;;;4.60;72.10;;;;;;6254262;22;20446;-85
2021/01/03 12:49:37;;;;;;;8.17;4.60;;;4.60;71.90;;;;;;6254694;22;20007;-85
2021/01/03 12:52:03;;;;;;;8.07;4.50;;;4.60;72.20;;;;;;6258924;22;20004;-84
2021/01/03 12:54:29;;;;;;;7.90;4.50;;;4.60;72.30;;;;;;6256419;22;20008;-86
2021/01/03 12:56:55;;;;;;;7.93;4.80;;;4.60;73.10;;;;;;6251064;22;20004;-85
2021/01/03 12:59:21;;;;;;;6.77;4.50;;;4.60;72.20;;;;;;6277027;22;20103;-85
2021/01/03 13:01:48;;;;;;;8.37;5.00;;;4.50;72.30;;;;;;6249361;22;20353;-85
2021/01/03 13:04:15;;;;;;;10.50;5.10;;;4.60;72.60;;;;;;6250208;22;20057;-85
2021/01/03 13:06:41;;;;;;;7.53;4.60;;;4.60;72.70;;;;;;6250626;22;20008;-85
2021/01/03 13:09:10;;;;;;;7.23;4.63;;;4.60;72.80;;;;;;6278086;22;20419;-85
2021/01/03 13:11:37;;;;;;;9.52;5.05;;;4.60;72.40;;;;;;6251271;22;20028;-85
2021/01/03 13:14:08;;;;;;;9.37;4.97;;;4.60;72.80;;;;;;6252641;22;20003;-85
2021/01/03 13:16:35;;;;;;;7.90;4.73;;;4.60;72.90;;;;;;6251373;22;20010;-85